Time;durP1;ratioP1;P1;durP2;ratioP2;P2;SDS_P1;SDS_P2;PMS_P1;PMS_P2;Temp;Humidity;BMP_temperature;BMP_pressure;BME280_temperature;BME280_humidity;BME280_pressure;Samples;Min_cycle;Max_cycle;Signal;HPM_P1;HPM_P2
2023/04/25 00:01:54;;;;;;;18.75;17.30;;;14.80;99.90;;;;;;4958265;28;20392;-90
2023/04/25 00:04:21;;;;;;;18.27;16.90;;;14.80;99.90;;;;;;4957758;29;20028;-91
2023/04/25 00:06:48;;;;;;;18.83;17.10;;;14.80;99.90;;;;;;4957743;28;20203;-89
2023/04/25 00:09:14;;;;;;;18.50;17.13;;;14.80;99.90;;;;;;4957892;29;20055;-90
2023/04/25 00:11:41;;;;;;;20.15;17.48;;;14.80;99.90;;;;;;4957651;28;20031;-91
2023/04/25 00:14:07;;;;;;;19.33;17.67;;;14.80;99.90;;;;;;4957508;29;20118;-91
2023/04/25 00:16:34;;;;;;;19.98;18.05;;;14.80;99.90;;;;;;4957654;29;20051;-89
2023/04/25 00:19:02;;;;;;;19.08;17.40;;;14.80;99.90;;;;;;4958754;29;20034;-89
2023/04/25 00:21:28;;;;;;;18.48;16.88;;;14.80;99.90;;;;;;4957749;28;20042;-92
2023/04/25 00:23:55;;;;;;;18.92;17.38;;;14.70;99.90;;;;;;4957450;28;20030;-90
2023/04/25 00:26:23;;;;;;;19.27;17.25;;;14.70;99.90;;;;;;4959867;28;20027;-91
2023/04/25 00:28:49;;;;;;;18.73;17.10;;;14.60;99.90;;;;;;4993102;28;20033;-90
2023/04/25 00:31:16;;;;;;;18.50;17.10;;;14.60;99.90;;;;;;4976685;28;20027;-90
2023/04/25 00:33:42;;;;;;;18.38;16.88;;;14.50;99.90;;;;;;4992893;28;20034;-91
2023/04/25 00:36:09;;;;;;;18.27;16.55;;;14.40;99.90;;;;;;4976324;28;20031;-92
2023/04/25 00:38:38;;;;;;;17.67;16.13;;;14.30;99.90;;;;;;4976134;28;20105;-92
2023/04/25 00:41:08;;;;;;;17.73;16.20;;;14.10;99.90;;;;;;4976456;28;20035;-89
2023/04/25 00:43:36;;;;;;;17.58;15.77;;;14.00;99.90;;;;;;4976360;28;20027;-90
2023/04/25 00:46:03;;;;;;;16.92;15.48;;;13.90;99.90;;;;;;4992618;28;20027;-90
2023/04/25 00:48:29;;;;;;;16.42;15.23;;;13.80;99.90;;;;;;4976505;28;20117;-90
2023/04/25 00:50:59;;;;;;;17.40;15.57;;;13.70;99.90;;;;;;4992320;28;20039;-88
2023/04/25 00:53:31;;;;;;;16.58;15.02;;;13.70;99.90;;;;;;4976154;28;20077;-91
2023/04/25 00:56:02;;;;;;;16.80;15.38;;;13.60;99.90;;;;;;4976185;28;20121;-90
2023/04/25 00:58:28;;;;;;;16.60;15.13;;;13.60;99.90;;;;;;4992220;28;20081;-90
2023/04/25 01:00:56;;;;;;;19.50;14.75;;;13.60;99.90;;;;;;4976015;28;20057;-92
2023/04/25 01:03:23;;;;;;;16.48;14.63;;;13.60;99.90;;;;;;4975956;28;20019;-90
2023/04/25 01:05:50;;;;;;;15.60;14.02;;;13.60;99.90;;;;;;4992241;28;20027;-90
2023/04/25 01:08:17;;;;;;;16.20;14.48;;;13.50;99.90;;;;;;4975979;28;20558;-89
2023/04/25 01:10:43;;;;;;;21.83;13.90;;;13.50;99.90;;;;;;4976889;28;20118;-91
2023/04/25 01:13:10;;;;;;;15.48;12.93;;;13.50;99.90;;;;;;4992991;28;20399;-90
2023/04/25 01:15:37;;;;;;;15.50;12.02;;;13.40;99.90;;;;;;4975754;28;20130;-92
2023/04/25 01:18:06;;;;;;;14.48;12.50;;;13.30;99.90;;;;;;4991873;28;20055;-92
2023/04/25 01:20:33;;;;;;;14.60;12.18;;;13.30;99.90;;;;;;4975795;28;20031;-91
2023/04/25 01:23:02;;;;;;;14.65;12.82;;;13.30;99.90;;;;;;4991923;28;20027;-91
2023/04/25 01:25:30;;;;;;;14.85;13.10;;;13.20;99.90;;;;;;4975759;28;20030;-89
2023/04/25 01:27:58;;;;;;;15.20;12.45;;;13.20;99.90;;;;;;4975607;28;20546;-88
2023/04/25 01:30:29;;;;;;;13.45;11.82;;;13.20;99.90;;;;;;4975393;28;20070;-90
2023/04/25 01:32:57;;;;;;;16.73;11.90;;;13.20;99.90;;;;;;4975486;28;20049;-91
2023/04/25 01:35:24;;;;;;;15.25;11.98;;;13.20;99.90;;;;;;4991521;28;20054;-93
2023/04/25 01:37:58;;;;;;;13.00;11.27;;;13.10;99.90;;;;;;4975144;28;20038;-91
2023/04/25 01:40:26;;;;;;;12.80;11.38;;;13.10;99.90;;;;;;4975288;28;20074;-89
2023/04/25 01:42:53;;;;;;;18.40;11.43;;;13.10;99.90;;;;;;4991304;28;20492;-91
2023/04/25 01:45:21;;;;;;;17.05;11.63;;;13.10;99.90;;;;;;4975452;28;20400;-90
2023/04/25 01:47:51;;;;;;;12.02;10.82;;;13.10;99.90;;;;;;4990990;28;20019;-91
2023/04/25 01:50:19;;;;;;;13.60;10.13;;;13.10;99.90;;;;;;4975122;28;20574;-90
2023/04/25 01:52:45;;;;;;;11.48;10.35;;;13.10;99.90;;;;;;4991175;28;20031;-91
2023/04/25 01:55:13;;;;;;;10.55;9.73;;;13.10;99.90;;;;;;4974889;28;20039;-89
2023/04/25 01:57:49;;;;;;;16.77;9.98;;;13.10;99.90;;;;;;4989775;28;20093;-91
2023/04/25 02:00:17;;;;;;;11.68;9.98;;;13.10;99.90;;;;;;4991068;28;20055;-89
2023/04/25 02:02:43;;;;;;;12.23;9.60;;;13.00;99.90;;;;;;4991373;28;20038;-91
2023/04/25 02:05:36;;;;;;;11.80;9.00;;;13.00;99.90;;;;;;4986639;28;20365;-92
2023/04/25 02:08:07;;;;;;;10.85;8.68;;;13.00;99.90;;;;;;4938307;28;20087;-92
2023/04/25 02:10:35;;;;;;;9.57;8.77;;;12.90;99.90;;;;;;4952359;28;20028;-90
2023/04/25 02:13:21;;;;;;;11.27;8.85;;;12.80;99.90;;;;;;4949563;29;20485;-90
2023/04/25 02:15:59;;;;;;;11.82;8.18;;;12.80;99.90;;;;;;4950486;28;20044;-91
2023/04/25 02:18:26;;;;;;;8.90;7.60;;;12.80;99.90;;;;;;4952274;29;20039;-91
2023/04/25 02:20:52;;;;;;;8.63;7.82;;;12.80;99.90;;;;;;4952334;28;20032;-91
2023/04/25 02:23:20;;;;;;;12.77;7.85;;;12.90;99.90;;;;;;4952134;28;20401;-91
2023/04/25 02:25:47;;;;;;;13.65;7.70;;;12.90;99.90;;;;;;4952237;28;20024;-90
2023/04/25 02:28:14;;;;;;;18.15;8.95;;;13.00;99.90;;;;;;4952041;28;20036;-90
2023/04/25 02:30:40;;;;;;;17.23;8.90;;;13.10;99.90;;;;;;4952176;28;20111;-90
2023/04/25 02:33:07;;;;;;;12.00;7.10;;;13.20;99.90;;;;;;4952567;28;20035;-92
2023/04/25 02:35:36;;;;;;;15.38;6.70;;;13.20;99.90;;;;;;4952790;28;20505;-89
2023/04/25 02:38:02;;;;;;;13.20;6.20;;;13.40;99.90;;;;;;4952012;28;20051;-91
2023/04/25 02:40:29;;;;;;;13.45;7.15;;;13.40;99.90;;;;;;4952109;28;20055;-91
2023/04/25 02:42:56;;;;;;;12.25;7.18;;;13.40;99.90;;;;;;4952283;28;20490;-90
2023/04/25 02:45:22;;;;;;;13.52;6.60;;;13.50;99.90;;;;;;4951735;28;20028;-90
2023/04/25 02:47:49;;;;;;;18.73;6.95;;;13.50;99.90;;;;;;4951779;28;20028;-90
2023/04/25 02:50:19;;;;;;;11.77;6.78;;;13.50;99.90;;;;;;4951348;28;20397;-89
2023/04/25 02:52:46;;;;;;;17.05;7.25;;;13.60;99.90;;;;;;4951816;28;20032;-90
2023/04/25 02:55:20;;;;;;;16.77;7.03;;;13.60;99.90;;;;;;4951021;28;20039;-92
2023/04/25 02:57:47;;;;;;;20.52;7.15;;;13.70;99.90;;;;;;4951703;28;20038;-91
2023/04/25 03:00:22;;;;;;;14.18;7.03;;;13.60;99.90;;;;;;4937386;28;20078;-89
2023/04/25 03:02:49;;;;;;;17.52;7.28;;;13.70;99.90;;;;;;4955801;28;20051;-89
2023/04/25 03:05:16;;;;;;;11.63;7.00;;;13.70;99.90;;;;;;4956666;28;20547;-88
2023/04/25 03:07:43;;;;;;;8.20;6.60;;;13.70;99.90;;;;;;4955737;29;20063;-90
2023/04/25 03:10:11;;;;;;;19.13;7.38;;;13.60;99.90;;;;;;4955770;28;20070;-90
2023/04/25 03:12:37;;;;;;;13.13;6.70;;;13.60;99.90;;;;;;4955594;28;20027;-89
2023/04/25 03:15:05;;;;;;;10.05;6.70;;;13.60;99.90;;;;;;4955300;28;20051;-90
2023/04/25 03:17:32;;;;;;;9.60;5.97;;;13.60;99.90;;;;;;4955471;28;20073;-90
2023/04/25 03:19:59;;;;;;;18.10;7.35;;;13.60;99.90;;;;;;4955757;28;20036;-89
2023/04/25 03:22:25;;;;;;;16.92;6.80;;;13.50;99.90;;;;;;4955345;28;20473;-90
2023/04/25 03:24:52;;;;;;;14.90;7.50;;;13.50;99.90;;;;;;4955183;28;20031;-91
2023/04/25 03:27:20;;;;;;;14.52;6.43;;;13.40;99.90;;;;;;4955200;28;20555;-91
2023/04/25 03:29:47;;;;;;;15.75;6.65;;;13.40;99.90;;;;;;4955090;28;20032;-89
2023/04/25 03:32:13;;;;;;;8.43;6.65;;;13.40;99.90;;;;;;4955177;28;20086;-90
2023/04/25 03:34:40;;;;;;;12.63;6.95;;;13.40;99.90;;;;;;4964851;28;20035;-90
2023/04/25 03:37:07;;;;;;;15.65;7.03;;;13.40;99.90;;;;;;4958628;29;20023;-92
2023/04/25 03:39:38;;;;;;;12.32;6.22;;;13.40;99.90;;;;;;4958350;29;20087;-90
2023/04/25 03:42:06;;;;;;;14.13;6.35;;;13.30;99.90;;;;;;4958180;28;20027;-90
2023/04/25 03:44:33;;;;;;;14.82;6.60;;;13.30;99.90;;;;;;4974220;28;20039;-90
2023/04/25 03:47:01;;;;;;;13.07;6.30;;;13.30;99.90;;;;;;4974032;28;20392;-89
2023/04/25 03:49:27;;;;;;;15.98;6.53;;;13.20;99.90;;;;;;4974210;28;20035;-90
2023/04/25 03:52:02;;;;;;;12.40;6.55;;;13.30;99.90;;;;;;4973293;28;20054;-91
2023/04/25 03:54:34;;;;;;;11.48;5.75;;;13.30;99.90;;;;;;4973006;28;20032;-91
2023/04/25 03:57:08;;;;;;;12.07;6.40;;;13.30;99.90;;;;;;4974643;28;20027;-91
2023/04/25 03:59:38;;;;;;;14.48;5.90;;;13.30;99.90;;;;;;4973556;28;20370;-90
2023/04/25 04:02:06;;;;;;;14.40;6.28;;;13.30;99.90;;;;;;4957688;28;20031;-91
2023/04/25 04:04:35;;;;;;;15.73;6.60;;;13.30;99.90;;;;;;4973439;28;20027;-90
2023/04/25 04:07:02;;;;;;;19.88;7.38;;;13.40;99.90;;;;;;4957828;28;20027;-89
2023/04/25 04:09:31;;;;;;;22.48;7.13;;;13.50;99.90;;;;;;4973384;28;20027;-91
2023/04/25 04:12:01;;;;;;;19.33;6.88;;;13.50;99.90;;;;;;4973264;28;20051;-89
2023/04/25 04:14:30;;;;;;;15.38;6.57;;;13.60;99.90;;;;;;4973192;28;20063;-88
2023/04/25 04:16:56;;;;;;;16.88;6.18;;;13.50;99.90;;;;;;4973381;28;20441;-89
2023/04/25 04:19:23;;;;;;;12.60;6.72;;;13.60;99.90;;;;;;4973656;28;20039;-90
2023/04/25 04:21:59;;;;;;;14.00;6.10;;;13.60;99.90;;;;;;4972320;28;20484;-90
2023/04/25 04:24:26;;;;;;;13.57;7.25;;;13.70;99.90;;;;;;4973489;28;20053;-90
2023/04/25 04:26:58;;;;;;;10.25;6.35;;;13.70;99.90;;;;;;4957260;28;20114;-91
2023/04/25 04:29:43;;;;;;;11.50;7.35;;;13.80;99.90;;;;;;4972857;28;20041;-90
2023/04/25 04:32:25;;;;;;;12.25;6.65;;;13.80;99.90;;;;;;4972086;28;20055;-91
2023/04/25 04:34:54;;;;;;;21.50;8.13;;;13.90;99.90;;;;;;4973147;28;20393;-89
2023/04/25 04:37:23;;;;;;;13.95;7.07;;;14.00;99.90;;;;;;4957410;28;20023;-89
2023/04/25 04:39:51;;;;;;;12.52;6.63;;;14.00;99.90;;;;;;4976466;28;20093;-92
2023/04/25 04:42:47;;;;;;;11.43;7.13;;;14.20;99.90;;;;;;4965738;28;20042;-90
2023/04/25 04:45:39;;;;;;;13.35;7.30;;;14.30;99.90;;;;;;4967422;28;20618;-91
2023/04/25 04:48:21;;;;;;;7.78;6.55;;;14.50;99.90;;;;;;4956995;29;20099;-91
2023/04/25 04:50:56;;;;;;;16.98;7.35;;;14.70;99.90;;;;;;4972426;28;20062;-90
2023/04/25 04:53:42;;;;;;;14.65;7.13;;;15.00;99.90;;;;;;4970339;28;20097;-90
2023/04/25 04:56:17;;;;;;;9.93;7.65;;;15.50;99.90;;;;;;4957286;28;20396;-91
2023/04/25 04:59:11;;;;;;;14.45;9.45;;;16.40;99.90;;;;;;4969546;28;20144;-89
2023/04/25 05:01:45;;;;;;;18.02;13.25;;;17.90;99.90;;;;;;4972031;28;20031;-93
2023/04/25 05:04:35;;;;;;;15.60;14.00;;;19.20;99.90;;;;;;4956705;29;20036;-91
2023/04/25 05:07:18;;;;;;;18.40;16.63;;;20.40;99.90;;;;;;4956791;28;20059;-91
2023/04/25 05:09:59;;;;;;;20.52;18.60;;;21.40;99.90;;;;;;4957009;29;20392;-92
2023/04/25 05:12:45;;;;;;;20.63;18.50;;;22.20;99.90;;;;;;4974100;28;20441;-94
2023/04/25 05:15:12;;;;;;;21.35;19.05;;;22.70;99.90;;;;;;4981085;28;20489;-92
2023/04/25 05:18:02;;;;;;;21.10;19.50;;;23.10;99.90;;;;;;4975892;28;20078;-93
2023/04/25 05:20:54;;;;;;;22.08;20.17;;;23.60;99.90;;;;;;4976375;28;20039;-92
2023/04/25 05:23:39;;;;;;;22.73;20.67;;;24.00;99.90;;;;;;4946144;28;20571;-92
2023/04/25 05:26:21;;;;;;;22.42;20.58;;;24.10;99.90;;;;;;4946991;28;20046;-91
2023/04/25 05:29:14;;;;;;;21.80;20.05;;;24.00;99.90;;;;;;4942835;29;20031;-90
2023/04/25 05:31:54;;;;;;;21.83;20.17;;;24.10;99.90;;;;;;4940882;29;20039;-90
2023/04/25 05:34:20;;;;;;;22.25;20.38;;;24.00;99.90;;;;;;4939506;29;20620;-92
2023/04/25 05:37:00;;;;;;;21.63;20.02;;;24.20;99.90;;;;;;4941036;29;20126;-92
2023/04/25 05:39:27;;;;;;;22.55;20.60;;;24.40;99.90;;;;;;4939424;29;20047;-92
2023/04/25 05:41:53;;;;;;;21.48;19.95;;;24.70;99.90;;;;;;4939499;29;20118;-92
2023/04/25 05:44:46;;;;;;;21.88;20.05;;;24.90;99.90;;;;;;4928550;29;20031;-91
2023/04/25 05:47:35;;;;;;;21.60;20.00;;;25.00;99.90;;;;;;4937172;29;20038;-92
2023/04/25 05:50:35;;;;;;;22.00;20.38;;;25.00;99.90;;;;;;4922777;29;20094;-93
2023/04/25 05:53:16;;;;;;;22.48;20.95;;;25.20;99.90;;;;;;4941247;29;20511;-90
2023/04/25 05:55:43;;;;;;;22.63;20.70;;;25.20;99.90;;;;;;4939278;29;20417;-94
2023/04/25 05:58:22;;;;;;;22.65;20.90;;;25.30;99.90;;;;;;4958839;28;20058;-88
2023/04/25 06:00:48;;;;;;;22.55;20.85;;;25.20;99.90;;;;;;4975241;28;20062;-91
2023/04/25 06:03:15;;;;;;;22.48;20.85;;;25.40;99.90;;;;;;4993104;28;20027;-91
2023/04/25 06:05:42;;;;;;;22.90;21.27;;;25.50;99.90;;;;;;4991914;28;20059;-93
2023/04/25 06:08:10;;;;;;;23.08;21.17;;;25.60;99.90;;;;;;4976328;28;20105;-92
2023/04/25 06:10:40;;;;;;;23.75;21.88;;;25.60;99.90;;;;;;4984893;28;20023;-88
2023/04/25 06:13:07;;;;;;;24.15;22.33;;;25.90;99.90;;;;;;4958760;28;20365;-90
2023/04/25 06:15:35;;;;;;;24.30;22.52;;;25.90;99.90;;;;;;4957340;28;20097;-93
2023/04/25 06:18:02;;;;;;;24.67;22.75;;;26.10;99.90;;;;;;4956093;28;20138;-93
2023/04/25 06:20:36;;;;;;;25.10;23.15;;;26.10;99.90;;;;;;4956730;28;20031;-92
2023/04/25 06:23:02;;;;;;;;;;;25.60;99.90;;;;;;4961523;28;20042;-91
2023/04/25 06:25:41;;;;;;;24.65;22.85;;;25.60;99.90;;;;;;4972644;28;19990;-87
2023/04/25 06:28:08;;;;;;;23.95;22.25;;;25.10;99.90;;;;;;4966201;28;20057;-87
2023/04/25 06:30:35;;;;;;;23.52;22.00;;;25.20;99.90;;;;;;4990414;28;20042;-87
2023/04/25 06:33:08;;;;;;;24.30;22.45;;;25.60;99.90;;;;;;4974244;28;20037;-88
2023/04/25 06:35:35;;;;;;;24.75;22.98;;;25.50;99.90;;;;;;4973240;28;20170;-87
2023/04/25 06:38:02;;;;;;;24.23;22.27;;;25.60;99.90;;;;;;4970975;28;20023;-87
2023/04/25 06:40:30;;;;;;;23.92;22.15;;;25.60;99.90;;;;;;4971200;28;20031;-88
2023/04/25 06:42:56;;;;;;;23.38;21.67;;;26.00;99.90;;;;;;4971195;28;20130;-86
2023/04/25 06:45:46;;;;;;;23.52;21.83;;;25.70;99.90;;;;;;4967613;28;20507;-87
2023/04/25 06:48:12;;;;;;;24.08;22.38;;;25.20;99.90;;;;;;4940198;28;20031;-87
2023/04/25 06:50:39;;;;;;;23.90;22.20;;;25.30;99.90;;;;;;4987756;28;20542;-88
2023/04/25 06:53:05;;;;;;;24.25;22.65;;;25.40;99.90;;;;;;4973762;28;20126;-87
2023/04/25 06:55:31;;;;;;;25.45;23.38;;;25.70;99.90;;;;;;4973778;28;20090;-86
2023/04/25 06:58:23;;;;;;;25.13;23.15;;;26.00;99.90;;;;;;4988888;28;20130;-93
2023/04/25 07:01:04;;;;;;;24.42;22.77;;;26.30;99.90;;;;;;4975097;28;20030;-90
2023/04/25 07:03:37;;;;;;;24.38;22.77;;;26.60;99.90;;;;;;4978685;28;20472;-92
2023/04/25 07:06:08;;;;;;;24.85;23.25;;;26.60;99.90;;;;;;4978640;28;20094;-92
2023/04/25 07:08:34;;;;;;;25.15;23.45;;;26.50;99.90;;;;;;4977491;28;20449;-93
2023/04/25 07:11:01;;;;;;;24.70;23.20;;;26.30;99.90;;;;;;4947562;28;20059;-91
2023/04/25 07:13:37;;;;;;;24.23;22.55;;;26.60;99.90;;;;;;4941825;29;20043;-93
2023/04/25 07:16:04;;;;;;;24.13;22.60;;;26.50;99.90;;;;;;4937523;29;20051;-89
2023/04/25 07:18:33;;;;;;;24.77;23.15;;;26.30;99.90;;;;;;4936554;29;20572;-87
2023/04/25 07:21:00;;;;;;;24.90;23.13;;;25.70;99.90;;;;;;4950834;29;20409;-91
2023/04/25 07:23:29;;;;;;;23.80;22.17;;;25.00;99.90;;;;;;4935540;29;20155;-87
2023/04/25 10:19:11;;;;;;;24.42;22.85;;;24.50;99.90;;;;;;5986772;23;20037;-88
2023/04/25 10:21:46;;;;;;;24.35;22.45;;;24.10;99.90;;;;;;4955091;29;20547;-89
2023/04/25 10:24:13;;;;;;;23.75;22.17;;;24.00;99.90;;;;;;4939553;29;20028;-88
2023/04/25 10:26:40;;;;;;;24.05;22.40;;;23.90;99.90;;;;;;4939524;29;20455;-89
2023/04/25 10:29:06;;;;;;;24.10;22.35;;;24.00;99.90;;;;;;4939373;29;20077;-90
2023/04/25 10:31:34;;;;;;;23.75;22.20;;;24.20;99.90;;;;;;4951923;28;20031;-89
2023/04/25 10:34:01;;;;;;;24.20;22.40;;;24.10;99.90;;;;;;4936064;29;20024;-89
2023/04/25 10:36:32;;;;;;;24.75;22.58;;;24.30;99.90;;;;;;4936312;29;20536;-90
2023/04/25 10:39:09;;;;;;;25.17;23.23;;;24.30;99.90;;;;;;4935981;29;20023;-90
2023/04/25 10:42:02;;;;;;;25.25;23.63;;;24.50;99.90;;;;;;4973751;28;20031;-90
2023/04/25 10:44:30;;;;;;;24.30;22.80;;;24.70;99.90;;;;;;4972348;28;20124;-92
2023/04/25 10:47:02;;;;;;;24.40;22.80;;;24.90;99.90;;;;;;4974405;28;20085;-90
2023/04/25 10:49:30;;;;;;;24.90;23.00;;;24.80;99.90;;;;;;4974113;28;20035;-92
2023/04/25 10:52:14;;;;;;;24.20;22.60;;;24.60;99.90;;;;;;4990675;28;20027;-92
2023/04/25 10:54:43;;;;;;;23.88;22.10;;;24.50;99.90;;;;;;4990634;28;20407;-90
2023/04/25 10:57:31;;;;;;;23.88;22.38;;;24.20;99.90;;;;;;4974406;28;20507;-92
2023/04/25 11:00:06;;;;;;;25.38;23.58;;;24.00;99.90;;;;;;4974104;28;20031;-91
2023/04/25 11:02:47;;;;;;;25.15;23.38;;;24.10;99.90;;;;;;4974215;28;20031;-92
2023/04/25 11:05:34;;;;;;;22.98;21.35;;;24.20;99.90;;;;;;4974246;28;20027;-91
2023/04/25 11:08:03;;;;;;;23.08;21.58;;;24.30;99.90;;;;;;4974311;28;20440;-91
2023/04/25 11:10:32;;;;;;;23.08;21.63;;;24.30;99.90;;;;;;4974485;28;20026;-90
2023/04/25 11:12:59;;;;;;;22.60;21.10;;;24.30;99.90;;;;;;4974157;28;20046;-92
2023/04/25 11:15:29;;;;;;;22.60;21.20;;;24.30;99.90;;;;;;4974092;28;20039;-91
2023/04/25 11:17:56;;;;;;;22.63;21.00;;;24.00;99.90;;;;;;4971479;28;20043;-91
2023/04/25 11:20:25;;;;;;;22.73;21.10;;;24.00;99.90;;;;;;4938766;28;20055;-91
2023/04/25 11:22:52;;;;;;;23.05;21.20;;;23.90;99.90;;;;;;4958402;29;20059;-91
2023/04/25 11:25:19;;;;;;;23.00;21.27;;;24.00;99.90;;;;;;4958763;28;20042;-91
2023/04/25 11:28:00;;;;;;;22.92;21.27;;;24.10;99.90;;;;;;4958525;28;20019;-91
2023/04/25 11:30:28;;;;;;;22.40;20.90;;;24.10;99.90;;;;;;4958413;28;20496;-89
2023/04/25 11:32:55;;;;;;;22.25;20.70;;;24.00;99.90;;;;;;4958413;29;20055;-92
2023/04/25 11:35:22;;;;;;;22.40;20.90;;;24.00;99.90;;;;;;4958451;28;20039;-88
2023/04/25 11:37:50;;;;;;;23.52;21.55;;;23.80;99.90;;;;;;4958196;29;20055;-91
2023/04/25 11:40:16;;;;;;;22.98;21.33;;;23.60;99.90;;;;;;4942240;28;20063;-92
2023/04/25 11:42:47;;;;;;;23.02;21.48;;;23.60;99.90;;;;;;4958370;28;20122;-91
2023/04/25 11:45:15;;;;;;;22.40;20.67;;;23.80;99.90;;;;;;4958130;28;20031;-91
2023/04/25 11:47:41;;;;;;;21.65;20.35;;;23.80;99.90;;;;;;4958083;28;20425;-91
2023/04/25 11:50:08;;;;;;;22.98;21.08;;;23.80;99.90;;;;;;4958228;29;20028;-89
2023/04/25 11:52:42;;;;;;;22.70;21.20;;;23.60;99.90;;;;;;4958048;28;20037;-92
2023/04/25 11:55:13;;;;;;;22.20;20.77;;;23.60;99.90;;;;;;4958257;29;20039;-90
2023/04/25 11:57:41;;;;;;;23.20;21.52;;;23.60;99.90;;;;;;4958456;28;20051;-91
2023/04/25 12:00:17;;;;;;;23.48;21.88;;;23.70;99.90;;;;;;4942037;29;20031;-91
2023/04/25 12:02:45;;;;;;;23.10;21.60;;;23.70;99.90;;;;;;4957753;29;20032;-92
2023/04/25 12:05:13;;;;;;;23.63;21.92;;;23.50;99.90;;;;;;4957824;28;20031;-91
2023/04/25 12:07:41;;;;;;;23.38;21.88;;;23.60;99.90;;;;;;4957847;29;20051;-91
2023/04/25 12:10:10;;;;;;;22.80;21.33;;;23.60;99.90;;;;;;4957987;28;20023;-91
2023/04/25 12:12:39;;;;;;;23.38;21.65;;;23.40;99.90;;;;;;4957596;28;20031;-92
2023/04/25 12:15:25;;;;;;;22.58;21.17;;;23.20;99.90;;;;;;4957635;28;20463;-91
2023/04/25 12:17:56;;;;;;;23.15;21.27;;;23.30;99.90;;;;;;4957620;29;20070;-90
2023/04/25 12:20:26;;;;;;;23.13;21.25;;;23.00;99.90;;;;;;4957349;29;20142;-91
2023/04/25 12:22:53;;;;;;;22.25;20.77;;;23.00;99.90;;;;;;4941633;28;20388;-93
2023/04/25 12:25:36;;;;;;;22.30;20.80;;;22.90;99.90;;;;;;4957673;28;20054;-90
2023/04/25 12:28:20;;;;;;;23.45;21.63;;;23.00;99.90;;;;;;4957660;28;20572;-90
2023/04/25 12:30:53;;;;;;;22.77;21.17;;;23.10;99.90;;;;;;4957556;29;20444;-92
2023/04/25 12:33:19;;;;;;;22.63;21.13;;;23.20;99.90;;;;;;4957985;28;20031;-92
2023/04/25 12:35:48;;;;;;;22.30;20.83;;;23.20;99.90;;;;;;4941948;28;20035;-93
2023/04/25 12:38:31;;;;;;;22.40;20.90;;;23.10;99.90;;;;;;5233660;23;20059;-83
2023/04/25 15:38:50;;;;;;;18.80;17.10;;;20.90;99.90;;;;;;5659497;23;20295;-81
2023/04/25 15:41:17;;;;;;;17.90;16.20;;;20.80;99.90;;;;;;4943647;29;20041;-79
2023/04/25 15:43:44;;;;;;;17.85;16.52;;;20.80;99.90;;;;;;4959959;28;20027;-79
2023/04/25 15:46:10;;;;;;;18.33;16.50;;;20.70;99.90;;;;;;4956975;28;20051;-80
2023/04/25 15:48:40;;;;;;;18.10;16.02;;;20.60;99.90;;;;;;4956867;28;20066;-81
2023/04/25 15:51:07;;;;;;;18.15;16.25;;;20.40;99.90;;;;;;4973456;28;20441;-90
2023/04/25 15:53:48;;;;;;;21.30;16.45;;;20.50;99.90;;;;;;5090567;23;20021;-92
2023/04/25 15:56:14;;;;;;;19.25;16.77;;;20.40;99.90;;;;;;4957600;29;20113;-91
2023/04/25 15:58:41;;;;;;;18.42;16.52;;;20.40;99.90;;;;;;4938916;28;20031;-92
2023/04/25 16:01:08;;;;;;;18.13;16.45;;;20.30;99.90;;;;;;4938868;29;20051;-92
2023/04/25 16:03:35;;;;;;;19.20;16.92;;;20.40;99.90;;;;;;4939005;29;20066;-93
2023/04/25 16:06:01;;;;;;;17.75;16.27;;;20.30;99.90;;;;;;4938866;29;20028;-91
2023/04/25 16:08:28;;;;;;;18.58;16.67;;;20.20;99.90;;;;;;4941613;29;20115;-92
2023/04/25 16:10:56;;;;;;;18.30;16.70;;;20.10;99.90;;;;;;4942110;28;20122;-92
2023/04/25 16:13:22;;;;;;;19.80;16.20;;;20.10;99.90;;;;;;4985840;28;20038;-93
2023/04/25 16:15:49;;;;;;;18.15;16.40;;;20.10;99.90;;;;;;4947370;28;20046;-91
2023/04/25 16:18:16;;;;;;;19.60;16.80;;;20.00;99.90;;;;;;4948932;28;20482;-94
2023/04/25 16:20:42;;;;;;;19.35;16.52;;;20.00;99.90;;;;;;4944757;28;20030;-92
2023/04/25 16:23:09;;;;;;;18.30;16.52;;;20.00;99.90;;;;;;4944305;28;20066;-92
2023/04/25 16:25:37;;;;;;;18.17;16.35;;;20.00;99.90;;;;;;4944397;28;20404;-91
2023/04/25 16:28:04;;;;;;;18.27;16.70;;;19.80;99.90;;;;;;4944960;28;20052;-92
2023/04/25 16:30:31;;;;;;;18.10;16.30;;;19.70;99.90;;;;;;4925094;29;20504;-93
2023/04/25 16:33:03;;;;;;;22.75;16.38;;;19.60;99.90;;;;;;4956859;28;20036;-90
2023/04/25 16:35:31;;;;;;;18.40;16.63;;;19.50;99.90;;;;;;4969138;28;20043;-92
2023/04/25 16:37:58;;;;;;;18.75;16.98;;;19.40;99.90;;;;;;4960029;28;20023;-93
2023/04/25 16:40:25;;;;;;;18.77;16.95;;;19.40;99.90;;;;;;4994498;28;20550;-93
2023/04/25 16:42:52;;;;;;;18.02;16.30;;;19.40;99.90;;;;;;4979294;28;20026;-91
2023/04/25 16:45:23;;;;;;;17.75;15.98;;;19.30;99.90;;;;;;4975606;28;20130;-91
2023/04/25 16:47:49;;;;;;;18.55;16.60;;;19.20;99.90;;;;;;4941171;28;20031;-92
2023/04/25 16:50:18;;;;;;;17.85;16.30;;;19.10;99.90;;;;;;4941231;28;20507;-92
2023/04/25 16:52:47;;;;;;;18.85;16.38;;;19.00;99.90;;;;;;4957218;28;20058;-91
2023/04/25 16:55:14;;;;;;;18.58;16.73;;;19.00;99.90;;;;;;4941369;29;20045;-91
2023/04/25 16:57:41;;;;;;;21.35;17.08;;;18.80;99.90;;;;;;4957164;29;20031;-91
2023/04/25 17:00:11;;;;;;;20.48;17.10;;;18.80;99.90;;;;;;4958659;28;20100;-92
2023/04/25 17:02:38;;;;;;;18.80;17.15;;;18.70;99.90;;;;;;4957105;28;20035;-91
2023/04/25 17:05:05;;;;;;;22.40;16.98;;;18.60;99.90;;;;;;4957034;28;20024;-91
2023/04/25 17:07:31;;;;;;;20.25;16.90;;;18.50;99.90;;;;;;4940811;28;20039;-90
2023/04/25 17:09:59;;;;;;;17.35;15.75;;;18.40;99.90;;;;;;4934388;29;20501;-91
2023/04/25 17:12:26;;;;;;;17.88;16.27;;;18.30;99.90;;;;;;4918753;29;20486;-89
2023/04/25 17:14:52;;;;;;;22.90;17.48;;;18.20;99.90;;;;;;4918363;29;20040;-90
2023/04/25 17:17:20;;;;;;;18.35;16.77;;;18.20;99.90;;;;;;4918106;29;20028;-94
2023/04/25 17:19:46;;;;;;;18.67;16.70;;;18.10;99.90;;;;;;4917442;29;20060;-92
2023/04/25 17:22:13;;;;;;;18.92;17.20;;;18.00;99.90;;;;;;4918475;29;20066;-91
2023/04/25 17:24:41;;;;;;;19.13;17.30;;;18.00;99.90;;;;;;4918416;29;20485;-94
2023/04/25 17:27:07;;;;;;;21.25;17.50;;;18.00;99.90;;;;;;4918492;29;20065;-92
2023/04/25 17:29:34;;;;;;;19.27;17.40;;;17.90;99.90;;;;;;4918911;29;20473;-89
2023/04/25 17:32:02;;;;;;;20.33;17.50;;;17.80;99.90;;;;;;4918602;29;20043;-93
2023/04/25 17:34:30;;;;;;;21.25;17.60;;;17.80;99.90;;;;;;4918232;29;20028;-92
2023/04/25 17:36:57;;;;;;;24.50;18.05;;;17.70;99.90;;;;;;4918324;29;20115;-93
2023/04/25 17:39:24;;;;;;;19.42;17.40;;;17.60;99.90;;;;;;4918728;29;20083;-91
2023/04/25 17:41:52;;;;;;;20.65;18.35;;;17.50;99.90;;;;;;4918955;29;20036;-92
2023/04/25 17:44:20;;;;;;;19.90;17.88;;;17.50;99.90;;;;;;4920447;29;20047;-94
2023/04/25 17:46:47;;;;;;;23.50;18.70;;;17.40;99.90;;;;;;4918155;29;20047;-95
2023/04/25 17:49:23;;;;;;;19.95;17.85;;;17.40;99.90;;;;;;4918391;29;20035;-91
2023/04/25 17:51:49;;;;;;;20.15;17.05;;;17.30;99.90;;;;;;4918150;29;20032;-92
2023/04/25 17:54:17;;;;;;;20.00;18.05;;;17.30;99.90;;;;;;4917640;29;20044;-91
2023/04/25 18:15:46;;;;;;;18.45;16.73;;;16.90;99.90;;;;;;4974180;28;20061;-92
2023/04/25 18:18:19;;;;;;;18.35;16.40;;;16.90;99.90;;;;;;4974780;28;20066;-90
2023/04/25 18:20:46;;;;;;;17.93;16.27;;;16.80;99.90;;;;;;4958695;28;20113;-91
2023/04/25 18:23:15;;;;;;;17.70;16.02;;;16.80;99.90;;;;;;4955367;28;20027;-91
2023/04/25 18:25:42;;;;;;;20.58;16.95;;;16.80;99.90;;;;;;4955642;29;20031;-91
2023/04/25 18:28:08;;;;;;;18.33;16.63;;;16.80;99.90;;;;;;4955501;29;20031;-90
2023/04/25 18:30:37;;;;;;;18.10;16.35;;;16.70;99.90;;;;;;4955207;28;20023;-92
2023/04/25 18:33:03;;;;;;;21.15;17.15;;;16.70;99.90;;;;;;4939430;28;20035;-90
2023/04/25 18:35:29;;;;;;;20.15;16.40;;;16.70;99.90;;;;;;4955420;28;20050;-90
2023/04/25 18:37:56;;;;;;;18.48;16.80;;;16.70;99.90;;;;;;4955268;28;20048;-92
2023/04/25 18:40:22;;;;;;;19.65;16.20;;;16.60;99.90;;;;;;4955368;28;20031;-91
2023/04/25 18:42:49;;;;;;;18.70;16.42;;;16.60;99.90;;;;;;4970844;28;20027;-91
2023/04/25 18:45:15;;;;;;;19.17;17.08;;;16.60;99.90;;;;;;4990533;28;20042;-92
2023/04/25 18:47:42;;;;;;;19.00;16.00;;;16.60;99.90;;;;;;4984526;28;20033;-90
2023/04/25 18:50:08;;;;;;;19.83;16.40;;;16.50;99.90;;;;;;4974035;28;20042;-91
2023/04/25 18:52:35;;;;;;;23.35;16.75;;;16.50;99.90;;;;;;4974206;28;20031;-89
2023/04/25 18:55:02;;;;;;;21.73;16.42;;;16.50;99.90;;;;;;4978768;28;20122;-89
2023/04/25 18:57:28;;;;;;;20.10;16.52;;;16.50;99.90;;;;;;4978859;28;20161;-87